LTBL/IGI METAR and TAF weather

Enter ICAO airport designator
Station Type Date Time Source
LTBL METAR 2022/07/03 13:50 UTC NOAA

LTBL 031350Z 34021KT CAVOK 35/14 Q1008 NOSIG RMK RWY17 36021KT


Station Type Date Time Source
LTBL Decoded METAR 2022/07/03 13:50 UTC NOAA

Izmir / Cigli, Turkey (LTBL) 38-30N 027-01E 5M
Jul 03, 2022 - 09:50 AM EDT / 2022.07.03 1350 UTC
Wind: from the NNW (340 degrees) at 24 MPH (21 KT):0
Visibility: greater than 7 mile(s):0
Temperature: 95 F (35 C)
Dew Point: 57 F (14 C)
Relative Humidity: 28%
Pressure (altimeter): 29.77 in. Hg (1008 hPa)
ob: LTBL 031350Z 34021KT CAVOK 35/14 Q1008 NOSIG RMK RWY17 36021KT
cycle: 14

Station Type Date Time Source
LTBL TAF UTC NOAA

Error!

Example: see airport list